createdAt,value
2018-05-07T00:00:07.539Z,19.40
2018-05-07T00:00:44.797Z,19.50
2018-05-07T00:01:23.038Z,19.40
2018-05-07T00:02:01.096Z,19.40
2018-05-07T00:02:38.625Z,19.40
2018-05-07T00:03:15.779Z,19.40
2018-05-07T00:03:52.941Z,19.40
2018-05-07T00:04:31.118Z,19.50
2018-05-07T00:05:08.474Z,19.50
2018-05-07T00:05:45.675Z,19.50
2018-05-07T00:06:22.893Z,19.50
2018-05-07T00:07:00.307Z,19.50
2018-05-07T00:07:37.618Z,19.50
2018-05-07T00:08:15.778Z,19.60
2018-05-07T00:08:54.014Z,19.60
2018-05-07T00:09:31.381Z,19.50
2018-05-07T00:10:08.611Z,19.50
2018-05-07T00:10:46.025Z,19.50
2018-05-07T00:11:23.446Z,19.50
2018-05-07T00:12:00.940Z,19.50
2018-05-07T00:12:38.316Z,19.50
2018-05-07T00:13:15.516Z,19.50
2018-05-07T00:13:52.898Z,19.50
2018-05-07T00:14:30.298Z,19.50
2018-05-07T00:15:08.278Z,19.50
2018-05-07T00:15:45.666Z,19.50
2018-05-07T00:16:23.035Z,19.50
2018-05-07T00:17:00.636Z,19.50
2018-05-07T00:17:38.699Z,19.50
2018-05-07T00:18:16.786Z,19.50
2018-05-07T00:18:54.233Z,19.50
2018-05-07T00:19:32.337Z,19.50
2018-05-07T00:20:09.593Z,19.50
2018-05-07T00:20:47.526Z,19.50
2018-05-07T00:21:24.956Z,19.50
2018-05-07T00:22:02.159Z,19.50
2018-05-07T00:22:39.549Z,19.50
2018-05-07T00:23:17.535Z,19.50
2018-05-07T00:23:54.778Z,19.50
2018-05-07T00:24:32.158Z,19.50
2018-05-07T00:25:09.552Z,19.50
2018-05-07T00:25:47.552Z,19.50
2018-05-07T00:26:25.741Z,19.50
2018-05-07T00:27:03.487Z,19.50
2018-05-07T00:27:40.622Z,19.60
2018-05-07T00:28:17.786Z,19.60
2018-05-07T00:28:55.958Z,19.50
2018-05-07T00:29:33.375Z,19.50
2018-05-07T00:30:11.577Z,19.50
2018-05-07T00:30:48.946Z,19.50
2018-05-07T00:31:26.374Z,19.50
2018-05-07T00:32:03.675Z,19.50
2018-05-07T00:32:41.064Z,19.50
2018-05-07T00:33:18.553Z,19.50
2018-05-07T00:33:55.986Z,19.50
2018-05-07T00:34:33.196Z,19.60
2018-05-07T00:35:10.799Z,19.60
2018-05-07T00:35:48.011Z,19.60
2018-05-07T00:36:25.247Z,19.60
2018-05-07T00:37:02.830Z,19.60
2018-05-07T00:37:40.117Z,19.60
2018-05-07T00:38:17.365Z,19.50
2018-05-07T00:38:54.720Z,19.60
2018-05-07T00:39:32.884Z,19.60
2018-05-07T00:40:11.008Z,19.60
2018-05-07T00:40:48.242Z,19.60
2018-05-07T00:41:25.647Z,19.60
2018-05-07T00:42:03.729Z,19.60
2018-05-07T00:42:41.103Z,19.60
2018-05-07T00:43:18.537Z,19.60
2018-05-07T00:43:55.944Z,19.60
2018-05-07T00:44:33.411Z,19.60
2018-05-07T00:45:10.775Z,19.60
2018-05-07T00:45:48.010Z,19.60
2018-05-07T00:46:25.362Z,19.50
2018-05-07T00:47:03.552Z,19.50
2018-05-07T00:47:41.778Z,19.50
2018-05-07T00:48:18.967Z,19.50
2018-05-07T00:48:57.211Z,19.50
2018-05-07T00:49:34.635Z,19.50
2018-05-07T00:50:11.967Z,19.60
2018-05-07T00:50:50.134Z,19.50
2018-05-07T00:51:27.635Z,19.50
2018-05-07T00:52:04.873Z,19.50
2018-05-07T00:52:43.090Z,19.50
2018-05-07T00:53:20.571Z,19.50
2018-05-07T00:53:57.962Z,19.50
2018-05-07T00:54:35.306Z,19.50
2018-05-07T00:55:12.803Z,19.50
2018-05-07T00:55:50.193Z,19.50
2018-05-07T00:56:28.277Z,19.50
2018-05-07T00:57:05.502Z,19.50
2018-05-07T00:57:42.881Z,19.40
2018-05-07T00:58:20.092Z,19.50
2018-05-07T00:58:57.410Z,19.50
2018-05-07T00:59:34.885Z,19.40
2018-05-07T01:00:12.338Z,19.40
2018-05-07T01:00:49.508Z,19.40
2018-05-07T01:01:26.747Z,19.40
2018-05-07T01:02:04.015Z,19.40
2018-05-07T01:02:41.922Z,19.40
2018-05-07T01:03:20.150Z,19.40
2018-05-07T01:03:57.497Z,19.30
2018-05-07T01:04:35.500Z,19.30
2018-05-07T01:05:12.856Z,19.40
2018-05-07T01:05:50.158Z,19.40
2018-05-07T01:06:27.460Z,19.30
2018-05-07T01:07:04.911Z,19.30
2018-05-07T01:07:42.245Z,19.30
2018-05-07T01:08:20.278Z,19.30
2018-05-07T01:08:57.726Z,19.30
2018-05-07T01:09:35.014Z,19.40
2018-05-07T01:10:13.202Z,19.40
2018-05-07T01:10:51.320Z,19.40
2018-05-07T01:11:29.499Z,19.40
2018-05-07T01:12:06.965Z,19.40
2018-05-07T01:12:44.440Z,19.40
2018-05-07T01:13:21.702Z,19.40
2018-05-07T01:13:59.189Z,19.40
2018-05-07T01:14:36.569Z,19.40
2018-05-07T01:15:13.775Z,19.40
2018-05-07T01:15:51.188Z,19.40
2018-05-07T01:16:28.420Z,19.40
2018-05-07T01:17:06.602Z,19.40
2018-05-07T01:17:44.821Z,19.40
2018-05-07T01:18:22.234Z,19.30
2018-05-07T01:18:59.642Z,19.40
2018-05-07T01:19:37.058Z,19.40
2018-05-07T01:20:14.278Z,19.30
2018-05-07T01:20:52.514Z,19.40
2018-05-07T01:21:29.877Z,19.30
2018-05-07T01:22:07.337Z,19.40
2018-05-07T01:22:44.728Z,19.40
2018-05-07T01:23:21.902Z,19.40
2018-05-07T01:23:59.297Z,19.40
2018-05-07T01:24:37.285Z,19.40
2018-05-07T01:25:14.756Z,19.30
2018-05-07T01:25:52.890Z,19.30
2018-05-07T01:26:30.227Z,19.30
2018-05-07T01:27:08.428Z,19.30
2018-05-07T01:27:45.834Z,19.30
2018-05-07T01:28:23.044Z,19.30
2018-05-07T01:29:00.389Z,19.30
2018-05-07T01:29:38.548Z,19.30
2018-05-07T01:30:16.765Z,19.30
2018-05-07T01:30:55.002Z,19.30
2018-05-07T01:31:33.250Z,19.30
2018-05-07T01:32:10.595Z,19.30
2018-05-07T01:32:47.841Z,19.30
2018-05-07T01:33:25.064Z,19.30
2018-05-07T01:34:02.510Z,19.30
2018-05-07T01:34:40.010Z,19.20
2018-05-07T01:35:18.112Z,19.30
2018-05-07T01:35:55.438Z,19.30
2018-05-07T01:36:32.819Z,19.20
2018-05-07T01:37:10.105Z,19.30
2018-05-07T01:37:47.529Z,19.30
2018-05-07T01:38:24.841Z,19.30
2018-05-07T01:39:02.259Z,19.30
2018-05-07T01:39:40.382Z,19.30
2018-05-07T01:40:17.839Z,19.20
2018-05-07T01:40:55.264Z,19.20
2018-05-07T01:41:33.307Z,19.30
2018-05-07T01:42:10.763Z,19.30
2018-05-07T01:42:48.942Z,19.20
2018-05-07T01:43:26.990Z,19.20
2018-05-07T01:44:04.341Z,19.20
2018-05-07T01:44:42.459Z,19.20
2018-05-07T01:45:19.917Z,19.20
2018-05-07T01:45:57.943Z,19.20
2018-05-07T01:46:35.160Z,19.20
2018-05-07T01:47:13.163Z,19.20
2018-05-07T01:47:51.247Z,19.20
2018-05-07T01:48:29.268Z,19.20
2018-05-07T01:49:06.550Z,19.20
2018-05-07T01:49:43.891Z,19.20
2018-05-07T01:50:21.998Z,19.20
2018-05-07T01:50:59.425Z,19.20
2018-05-07T01:51:37.537Z,19.20
2018-05-07T01:52:15.481Z,19.30
2018-05-07T01:52:52.952Z,19.20
2018-05-07T01:53:31.140Z,19.20
2018-05-07T01:54:08.558Z,19.20
2018-05-07T01:54:46.826Z,19.20
2018-05-07T01:55:25.066Z,19.30
2018-05-07T01:56:02.294Z,19.20
2018-05-07T01:56:39.635Z,19.20
2018-05-07T01:57:17.768Z,19.30
2018-05-07T01:57:55.158Z,19.30
2018-05-07T01:58:32.532Z,19.30
2018-05-07T01:59:10.597Z,19.40
2018-05-07T01:59:47.767Z,19.40
2018-05-07T02:00:25.032Z,19.40
2018-05-07T02:01:03.262Z,19.40
2018-05-07T02:01:40.585Z,19.40
2018-05-07T02:02:18.719Z,19.30
2018-05-07T02:02:56.116Z,19.30
2018-05-07T02:03:34.174Z,19.40
2018-05-07T02:04:11.611Z,19.40
2018-05-07T02:04:49.902Z,19.30
2018-05-07T02:05:27.257Z,19.30
2018-05-07T02:06:04.711Z,19.30
2018-05-07T02:06:42.102Z,19.30
2018-05-07T02:07:19.475Z,19.30
2018-05-07T02:07:56.794Z,19.20
2018-05-07T02:08:34.273Z,19.30
2018-05-07T02:09:12.441Z,19.20
2018-05-07T02:09:49.848Z,19.20
2018-05-07T02:10:27.995Z,19.20
2018-05-07T02:11:06.218Z,19.20
2018-05-07T02:11:43.514Z,19.20
2018-05-07T02:12:20.888Z,19.20
2018-05-07T02:12:58.942Z,19.20
2018-05-07T02:13:36.258Z,19.20
2018-05-07T02:14:13.654Z,19.20
2018-05-07T02:14:50.829Z,19.20
2018-05-07T02:15:29.065Z,19.20
2018-05-07T02:16:06.381Z,19.20
2018-05-07T02:16:43.699Z,19.20
2018-05-07T02:17:21.161Z,19.20
2018-05-07T02:17:59.167Z,19.20
2018-05-07T02:18:37.365Z,19.20
2018-05-07T02:19:15.577Z,19.20
2018-05-07T02:19:52.914Z,19.20
2018-05-07T02:20:31.186Z,19.20
2018-05-07T02:21:08.390Z,19.10
2018-05-07T02:21:45.709Z,19.20
2018-05-07T02:22:22.893Z,19.20
2018-05-07T02:23:00.106Z,19.10
2018-05-07T02:23:37.262Z,19.10
2018-05-07T02:24:14.569Z,19.10
2018-05-07T02:24:51.791Z,19.10
2018-05-07T02:25:29.001Z,19.20
2018-05-07T02:26:06.338Z,19.10
2018-05-07T02:26:44.596Z,19.10
2018-05-07T02:27:21.986Z,19.10
2018-05-07T02:27:59.961Z,19.10
2018-05-07T02:28:37.293Z,19.10
2018-05-07T02:29:14.627Z,19.10
2018-05-07T02:29:51.824Z,19.10
2018-05-07T02:30:29.334Z,19.10
2018-05-07T02:31:07.557Z,19.10
2018-05-07T02:31:45.021Z,19.10
2018-05-07T02:32:22.471Z,19.10
2018-05-07T02:32:59.843Z,19.10
2018-05-07T02:33:38.104Z,19.20
2018-05-07T02:34:15.441Z,19.10
2018-05-07T02:34:52.689Z,19.10
2018-05-07T02:35:29.868Z,19.10
2018-05-07T02:36:07.159Z,19.10
2018-05-07T02:36:44.430Z,19.10
2018-05-07T02:37:21.838Z,19.10
2018-05-07T02:38:00.029Z,19.20
2018-05-07T02:38:38.112Z,19.10
2018-05-07T02:39:15.379Z,19.20
2018-05-07T02:39:52.825Z,19.20
2018-05-07T02:40:30.953Z,19.10
2018-05-07T02:41:09.164Z,19.10
2018-05-07T02:41:46.606Z,19.10
2018-05-07T02:42:24.819Z,19.10
2018-05-07T02:43:03.029Z,19.10
2018-05-07T02:43:41.224Z,19.10
2018-05-07T02:44:18.657Z,19.10
2018-05-07T02:44:55.877Z,19.10
2018-05-07T02:45:33.119Z,19.10
2018-05-07T02:46:10.532Z,19.20
2018-05-07T02:46:47.968Z,19.10
2018-05-07T02:47:26.194Z,19.10
2018-05-07T02:48:03.621Z,19.10
2018-05-07T02:48:41.039Z,19.10
2018-05-07T02:49:18.236Z,19.10
2018-05-07T02:49:55.463Z,19.10
2018-05-07T02:50:32.867Z,19.20
2018-05-07T02:51:10.109Z,19.20
2018-05-07T02:51:48.345Z,19.10
2018-05-07T02:52:25.754Z,19.10
2018-05-07T02:53:03.181Z,19.10
2018-05-07T02:53:40.571Z,19.10
2018-05-07T02:54:18.752Z,19.10
2018-05-07T02:54:56.361Z,19.10
2018-05-07T02:55:34.533Z,19.10
2018-05-07T02:56:11.837Z,19.10
2018-05-07T02:56:49.166Z,19.20
2018-05-07T02:57:26.479Z,19.20
2018-05-07T02:58:03.825Z,19.10
2018-05-07T02:58:41.087Z,19.20
2018-05-07T02:59:18.362Z,19.10
2018-05-07T02:59:55.639Z,19.10
2018-05-07T03:00:33.019Z,19.10
2018-05-07T03:01:11.157Z,19.10
2018-05-07T03:01:48.318Z,19.10
2018-05-07T03:02:25.900Z,19.10
2018-05-07T03:03:04.063Z,19.10
2018-05-07T03:03:41.249Z,19.10
2018-05-07T03:04:18.494Z,19.10
2018-05-07T03:04:55.838Z,19.10
2018-05-07T03:05:34.002Z,19.10
2018-05-07T03:06:11.490Z,19.10
2018-05-07T03:06:48.851Z,19.10
2018-05-07T03:07:26.851Z,19.10
2018-05-07T03:08:05.037Z,19.10
2018-05-07T03:08:42.400Z,19.10
2018-05-07T03:09:19.661Z,19.10
2018-05-07T03:09:57.024Z,19.10
2018-05-07T03:10:35.059Z,19.10
2018-05-07T03:11:12.479Z,19.10
2018-05-07T03:11:49.603Z,19.10
2018-05-07T03:12:27.078Z,19.10
2018-05-07T03:13:04.496Z,19.10
2018-05-07T03:13:42.461Z,19.10
2018-05-07T03:14:19.917Z,19.10
2018-05-07T03:14:57.439Z,19.10
2018-05-07T03:15:34.803Z,19.10
2018-05-07T03:16:12.210Z,19.10
2018-05-07T03:16:50.357Z,19.10
2018-05-07T03:17:28.584Z,19.10
2018-05-07T03:18:05.918Z,19.10
2018-05-07T03:18:44.130Z,19.10
2018-05-07T03:19:22.339Z,19.20
2018-05-07T03:19:59.591Z,19.10
2018-05-07T03:20:37.037Z,19.20
2018-05-07T03:21:14.438Z,19.20
2018-05-07T03:21:51.915Z,19.10
2018-05-07T03:22:29.313Z,19.10
2018-05-07T03:23:06.779Z,19.10
2018-05-07T03:23:44.027Z,19.20
2018-05-07T03:24:22.166Z,19.20
2018-05-07T03:24:59.619Z,19.10
2018-05-07T03:25:36.770Z,19.10
2018-05-07T03:26:13.954Z,19.20
2018-05-07T03:26:51.350Z,19.10
2018-05-07T03:27:28.628Z,19.10
2018-05-07T03:28:06.754Z,19.10
2018-05-07T03:28:44.130Z,19.10
2018-05-07T03:29:21.484Z,19.10
2018-05-07T03:29:58.661Z,19.10
2018-05-07T03:30:36.746Z,19.20
2018-05-07T03:31:14.174Z,19.20
2018-05-07T03:31:51.517Z,19.20
2018-05-07T03:32:29.810Z,19.10
2018-05-07T03:33:07.176Z,19.10
2018-05-07T03:33:44.351Z,19.10
2018-05-07T03:34:21.738Z,19.10
2018-05-07T03:34:59.917Z,19.00
2018-05-07T03:35:37.917Z,19.00
2018-05-07T03:36:16.019Z,19.00
2018-05-07T03:36:53.211Z,19.00
2018-05-07T03:37:30.506Z,19.00
2018-05-07T03:38:07.816Z,19.00
2018-05-07T03:38:45.237Z,19.00
2018-05-07T03:39:23.411Z,19.00
2018-05-07T03:40:01.495Z,19.00
2018-05-07T03:40:38.923Z,19.00
2018-05-07T03:41:16.966Z,19.00
2018-05-07T03:41:54.298Z,19.00
2018-05-07T03:42:31.694Z,19.00
2018-05-07T03:43:09.115Z,19.00
2018-05-07T03:43:46.393Z,19.00
2018-05-07T03:44:23.813Z,19.00
2018-05-07T03:45:01.207Z,19.00
2018-05-07T03:45:38.535Z,19.00
2018-05-07T03:46:15.780Z,19.00
2018-05-07T03:46:53.198Z,19.00
2018-05-07T03:47:30.570Z,19.00
2018-05-07T03:48:07.995Z,19.00
2018-05-07T03:48:45.537Z,19.00
2018-05-07T03:49:23.654Z,19.10
2018-05-07T03:50:01.054Z,19.10
2018-05-07T03:50:38.392Z,19.10
2018-05-07T03:51:15.830Z,19.10
2018-05-07T03:51:53.259Z,19.10
2018-05-07T03:52:31.489Z,19.00
2018-05-07T03:53:09.708Z,19.10
2018-05-07T03:53:47.166Z,19.10
2018-05-07T03:54:25.338Z,19.10
2018-05-07T03:55:02.599Z,19.10
2018-05-07T03:55:40.801Z,19.00
2018-05-07T03:56:19.001Z,19.10
2018-05-07T03:56:56.454Z,19.00
2018-05-07T03:57:34.582Z,19.10
2018-05-07T03:58:11.887Z,19.10
2018-05-07T03:58:49.105Z,19.10
2018-05-07T03:59:26.483Z,19.10
2018-05-07T04:00:04.696Z,19.10
2018-05-07T04:00:42.904Z,19.10
2018-05-07T04:01:20.222Z,19.10
2018-05-07T04:01:57.435Z,19.10
2018-05-07T04:02:35.541Z,19.10
2018-05-07T04:03:12.973Z,19.00
2018-05-07T04:03:51.177Z,19.10
2018-05-07T04:04:29.317Z,19.00
2018-05-07T04:05:06.664Z,19.00
2018-05-07T04:05:43.937Z,19.10
2018-05-07T04:06:21.287Z,19.10
2018-05-07T04:06:59.428Z,19.10
2018-05-07T04:07:36.710Z,19.10
2018-05-07T04:08:13.967Z,19.10
2018-05-07T04:08:51.112Z,19.10
2018-05-07T04:09:28.545Z,19.10
2018-05-07T04:10:05.877Z,19.10
2018-05-07T04:10:43.353Z,19.10
2018-05-07T04:11:20.720Z,19.10
2018-05-07T04:11:58.113Z,19.10
2018-05-07T04:12:35.464Z,19.10
2018-05-07T04:13:12.872Z,19.10
2018-05-07T04:13:51.116Z,19.10
2018-05-07T04:14:28.538Z,19.10
2018-05-07T04:15:06.746Z,19.10
2018-05-07T04:15:44.957Z,19.10
2018-05-07T04:16:23.171Z,19.10
2018-05-07T04:17:00.458Z,19.10
2018-05-07T04:17:38.614Z,19.10
2018-05-07T04:18:15.972Z,19.10
2018-05-07T04:18:54.183Z,19.20
2018-05-07T04:19:31.551Z,19.20
2018-05-07T04:20:09.763Z,19.20
2018-05-07T04:20:47.946Z,19.20
2018-05-07T04:21:25.309Z,19.20
2018-05-07T04:22:02.487Z,19.20
2018-05-07T04:22:39.759Z,19.10
2018-05-07T04:23:17.171Z,19.20
2018-05-07T04:23:54.522Z,19.20
2018-05-07T04:24:31.769Z,19.10
2018-05-07T04:25:09.045Z,19.20
2018-05-07T04:25:47.077Z,19.10
2018-05-07T04:26:24.484Z,19.10
2018-05-07T04:27:01.639Z,19.10
2018-05-07T04:27:39.822Z,19.10
2018-05-07T04:28:18.013Z,19.10
2018-05-07T04:28:56.131Z,19.10
2018-05-07T04:29:33.447Z,19.10
2018-05-07T04:30:10.882Z,19.10
2018-05-07T04:30:48.218Z,19.10
2018-05-07T04:31:25.682Z,19.10
2018-05-07T04:32:03.589Z,19.10
2018-05-07T04:32:41.829Z,19.00
2018-05-07T04:33:19.985Z,19.10
2018-05-07T04:33:57.230Z,19.10
2018-05-07T04:34:35.482Z,19.10
2018-05-07T04:35:12.693Z,19.10
2018-05-07T04:35:50.118Z,19.10
2018-05-07T04:36:27.350Z,19.10
2018-05-07T04:37:04.614Z,19.20
2018-05-07T04:37:42.654Z,19.20
2018-05-07T04:38:19.900Z,19.10
2018-05-07T04:38:57.159Z,19.10
2018-05-07T04:39:34.438Z,19.20
2018-05-07T04:40:11.710Z,19.20
2018-05-07T04:40:49.026Z,19.20
2018-05-07T04:41:26.450Z,19.20
2018-05-07T04:42:04.502Z,19.20
2018-05-07T04:42:42.573Z,19.20
2018-05-07T04:43:20.007Z,19.20
2018-05-07T04:43:58.158Z,19.20
2018-05-07T04:44:35.597Z,19.20
2018-05-07T04:45:13.687Z,19.20
2018-05-07T04:45:51.107Z,19.20
2018-05-07T04:46:29.323Z,19.20
2018-05-07T04:47:06.618Z,19.20
2018-05-07T04:47:44.790Z,19.20
2018-05-07T04:48:22.091Z,19.10
2018-05-07T04:48:59.322Z,19.20
2018-05-07T04:49:36.466Z,19.10
2018-05-07T04:50:13.622Z,19.10
2018-05-07T04:50:51.850Z,19.10
2018-05-07T04:51:29.142Z,19.00
2018-05-07T04:52:06.481Z,19.00
2018-05-07T04:52:43.654Z,19.00
2018-05-07T04:53:20.902Z,19.00
2018-05-07T04:53:59.044Z,19.00
2018-05-07T04:54:36.529Z,19.00
2018-05-07T04:55:13.981Z,19.00
2018-05-07T04:55:51.878Z,19.00
2018-05-07T04:56:29.239Z,19.00
2018-05-07T04:57:06.506Z,19.00
2018-05-07T04:57:43.833Z,19.00
2018-05-07T04:58:22.001Z,19.00
2018-05-07T04:59:00.158Z,19.00
2018-05-07T04:59:37.476Z,19.00
2018-05-07T05:00:14.895Z,19.00
2018-05-07T05:00:52.941Z,19.00
2018-05-07T05:01:31.150Z,19.00
2018-05-07T05:02:08.601Z,19.00
2018-05-07T05:02:46.805Z,19.00
2018-05-07T05:03:25.035Z,19.00
2018-05-07T05:04:02.434Z,19.00
2018-05-07T05:04:40.498Z,19.00
2018-05-07T05:05:17.930Z,19.00
2018-05-07T05:05:55.116Z,19.00
2018-05-07T05:06:32.578Z,19.00
2018-05-07T05:07:10.652Z,19.00
2018-05-07T05:07:48.830Z,19.10
2018-05-07T05:08:26.131Z,19.00
2018-05-07T05:09:03.481Z,19.00
2018-05-07T05:09:40.850Z,19.00
2018-05-07T05:10:18.274Z,19.00
2018-05-07T05:10:56.188Z,18.80
2018-05-07T05:11:34.292Z,19.00
2018-05-07T05:12:11.652Z,19.00
2018-05-07T05:12:48.820Z,19.00
2018-05-07T05:13:26.931Z,19.00
2018-05-07T05:14:04.298Z,19.00
2018-05-07T05:14:41.647Z,19.00
2018-05-07T05:15:18.869Z,19.00
2018-05-07T05:15:56.256Z,19.00
2018-05-07T05:16:34.429Z,19.00
2018-05-07T05:17:12.649Z,19.00
2018-05-07T05:17:50.834Z,19.10
2018-05-07T05:18:28.168Z,19.10
2018-05-07T05:19:05.383Z,19.10
2018-05-07T05:19:42.622Z,19.10
2018-05-07T05:20:20.749Z,19.00
2018-05-07T05:20:57.983Z,19.00
2018-05-07T05:21:35.387Z,19.00
2018-05-07T05:22:12.907Z,19.00
2018-05-07T05:22:50.866Z,18.90
2018-05-07T05:23:28.249Z,18.90
2018-05-07T05:24:05.498Z,19.00
2018-05-07T05:24:43.701Z,18.90
2018-05-07T05:25:20.945Z,18.90
2018-05-07T05:25:59.193Z,18.90
2018-05-07T05:26:36.426Z,18.90
2018-05-07T05:27:13.630Z,18.90
2018-05-07T05:27:50.855Z,19.00
2018-05-07T05:28:28.048Z,18.90
2018-05-07T05:29:06.259Z,18.90
2018-05-07T05:29:43.677Z,18.90
2018-05-07T05:30:21.832Z,18.90
2018-05-07T05:30:59.212Z,18.90
2018-05-07T05:31:36.559Z,18.90
2018-05-07T05:32:14.575Z,18.90
2018-05-07T05:32:52.014Z,18.90
2018-05-07T05:33:30.274Z,18.90
2018-05-07T05:34:07.527Z,18.90
2018-05-07T05:34:44.943Z,18.90
2018-05-07T05:35:22.349Z,18.90
2018-05-07T05:35:59.627Z,19.00
2018-05-07T05:36:37.002Z,18.90
2018-05-07T05:37:14.238Z,18.90
2018-05-07T05:37:52.393Z,18.90
2018-05-07T05:38:29.750Z,18.90
2018-05-07T05:39:07.842Z,18.90
2018-05-07T05:39:45.936Z,18.90
2018-05-07T05:40:23.161Z,18.80
2018-05-07T05:41:00.526Z,18.80
2018-05-07T05:41:37.774Z,18.90
2018-05-07T05:42:15.869Z,18.90
2018-05-07T05:42:53.879Z,18.90
2018-05-07T05:43:31.305Z,18.90
2018-05-07T05:44:09.430Z,18.90
2018-05-07T05:44:47.545Z,18.90
2018-05-07T05:45:24.781Z,18.80
2018-05-07T05:46:02.315Z,18.90
2018-05-07T05:46:39.514Z,18.80
2018-05-07T05:47:16.924Z,18.80
2018-05-07T05:47:54.114Z,18.70
2018-05-07T05:48:31.312Z,18.80
2018-05-07T05:49:08.659Z,18.80
2018-05-07T05:49:46.132Z,18.80
2018-05-07T05:50:23.514Z,18.80
2018-05-07T05:51:00.941Z,18.80
2018-05-07T05:51:39.033Z,18.80
2018-05-07T05:52:17.035Z,18.80
2018-05-07T05:52:54.280Z,18.80
2018-05-07T05:53:31.744Z,18.80
2018-05-07T05:54:09.790Z,18.80
2018-05-07T05:54:47.915Z,18.80
2018-05-07T05:55:25.201Z,18.80
2018-05-07T05:56:03.177Z,18.90
2018-05-07T05:56:40.491Z,18.90
2018-05-07T05:57:17.828Z,18.90
2018-05-07T05:57:55.012Z,18.90
2018-05-07T05:58:33.113Z,18.90
2018-05-07T05:59:11.310Z,19.00
2018-05-07T05:59:48.646Z,18.90
2018-05-07T06:00:25.914Z,18.90
2018-05-07T06:01:03.375Z,18.90
2018-05-07T06:01:41.517Z,18.90
2018-05-07T06:02:18.793Z,18.90
2018-05-07T06:02:56.104Z,18.90
2018-05-07T06:03:33.270Z,18.90
2018-05-07T06:04:11.426Z,18.90
2018-05-07T06:04:48.728Z,18.90
2018-05-07T06:05:26.093Z,18.90
2018-05-07T06:06:04.260Z,18.90
2018-05-07T06:06:42.463Z,18.90
2018-05-07T06:07:19.869Z,18.90
2018-05-07T06:07:57.285Z,18.90
2018-05-07T06:08:35.521Z,18.90
2018-05-07T06:09:12.757Z,18.90
2018-05-07T06:09:50.094Z,18.90
2018-05-07T06:10:27.514Z,19.00
2018-05-07T06:11:04.899Z,18.90
2018-05-07T06:11:42.093Z,18.90
2018-05-07T06:12:19.462Z,18.90
2018-05-07T06:12:57.668Z,18.90
2018-05-07T06:13:35.062Z,18.90
2018-05-07T06:14:12.394Z,19.00
2018-05-07T06:14:49.915Z,19.00
2018-05-07T06:15:27.191Z,19.00
2018-05-07T06:16:04.628Z,18.90
2018-05-07T06:16:42.818Z,18.90
2018-05-07T06:17:20.194Z,18.90
2018-05-07T06:17:57.677Z,19.00
2018-05-07T06:18:35.895Z,19.00
2018-05-07T06:19:13.078Z,18.90
2018-05-07T06:19:50.522Z,18.90
2018-05-07T06:20:27.744Z,19.00
2018-05-07T06:21:05.909Z,18.90
2018-05-07T06:21:43.217Z,18.90
2018-05-07T06:22:20.547Z,18.90
2018-05-07T06:22:57.834Z,18.90
2018-05-07T06:23:35.165Z,18.90
2018-05-07T06:24:13.297Z,19.00
2018-05-07T06:24:51.504Z,19.00
2018-05-07T06:25:29.687Z,19.00
2018-05-07T06:26:07.085Z,19.00
2018-05-07T06:26:44.547Z,18.90
2018-05-07T06:27:22.558Z,18.90
2018-05-07T06:28:00.066Z,18.90
2018-05-07T06:28:37.302Z,18.90
2018-05-07T06:29:15.330Z,18.90
2018-05-07T06:29:52.590Z,18.90
2018-05-07T06:30:30.752Z,19.00
2018-05-07T06:31:09.309Z,19.00
2018-05-07T06:31:47.565Z,19.00
2018-05-07T06:32:24.775Z,19.00
2018-05-07T06:33:01.910Z,19.00
2018-05-07T06:33:39.302Z,19.00
2018-05-07T06:34:17.570Z,19.10
2018-05-07T06:34:54.938Z,19.10
2018-05-07T06:35:32.154Z,19.10
2018-05-07T06:36:09.506Z,19.10
2018-05-07T06:36:47.682Z,19.00
2018-05-07T06:37:25.067Z,19.00
2018-05-07T06:38:02.385Z,19.00
2018-05-07T06:38:39.608Z,19.00
2018-05-07T06:39:17.021Z,19.10
2018-05-07T06:39:54.193Z,19.10
2018-05-07T06:40:31.608Z,19.00
2018-05-07T06:41:09.767Z,19.00
2018-05-07T06:41:47.001Z,19.00
2018-05-07T06:42:24.432Z,19.00
2018-05-07T06:43:01.830Z,18.90
2018-05-07T06:43:39.214Z,18.90
2018-05-07T06:44:17.452Z,18.90
2018-05-07T06:44:54.765Z,18.90
2018-05-07T06:45:32.924Z,18.90
2018-05-07T06:46:10.207Z,18.90
2018-05-07T06:46:48.386Z,18.80
2018-05-07T06:47:25.781Z,18.80
2018-05-07T06:48:03.209Z,18.90
2018-05-07T06:48:41.326Z,18.90
2018-05-07T06:49:18.820Z,18.80
2018-05-07T06:49:56.812Z,18.90
2018-05-07T06:50:34.794Z,18.90
2018-05-07T06:51:12.046Z,18.90
2018-05-07T06:51:49.449Z,18.90
2018-05-07T06:52:26.796Z,18.90
2018-05-07T06:53:04.899Z,18.90
2018-05-07T06:53:42.304Z,18.90
2018-05-07T06:54:20.408Z,18.90
2018-05-07T06:54:57.683Z,18.90
2018-05-07T06:55:34.845Z,18.90
2018-05-07T06:56:12.210Z,18.90
2018-05-07T06:56:50.409Z,18.90
2018-05-07T06:57:28.586Z,18.90
2018-05-07T06:58:05.872Z,18.90
2018-05-07T06:58:43.055Z,18.90
2018-05-07T06:59:20.442Z,18.90
2018-05-07T06:59:57.602Z,18.90
2018-05-07T07:00:35.713Z,18.90
2018-05-07T07:01:13.124Z,18.90
2018-05-07T07:01:51.350Z,19.00
2018-05-07T07:02:28.755Z,19.00
2018-05-07T07:03:05.962Z,19.00
2018-05-07T07:03:44.190Z,19.00
2018-05-07T07:04:21.598Z,19.00
2018-05-07T07:04:58.801Z,19.00
2018-05-07T07:05:36.840Z,19.10
2018-05-07T07:06:14.242Z,19.00
2018-05-07T07:06:52.214Z,19.10
2018-05-07T07:07:29.395Z,19.10
2018-05-07T07:08:06.912Z,19.10
2018-05-07T07:08:44.111Z,19.10
2018-05-07T07:09:22.367Z,19.10
2018-05-07T07:09:59.578Z,19.20
2018-05-07T07:10:36.979Z,19.20
2018-05-07T07:11:14.181Z,19.20
2018-05-07T07:11:52.353Z,19.20
2018-05-07T07:12:30.445Z,19.30
2018-05-07T07:13:08.420Z,19.30
2018-05-07T07:13:45.886Z,19.30
2018-05-07T07:14:23.282Z,19.20
2018-05-07T07:15:00.652Z,19.30
2018-05-07T07:15:38.868Z,19.30
2018-05-07T07:16:16.258Z,19.30
2018-05-07T07:16:54.431Z,19.30
2018-05-07T07:17:31.761Z,19.30
2018-05-07T07:18:09.899Z,19.30
2018-05-07T07:18:47.306Z,19.30
2018-05-07T07:19:25.305Z,19.40
2018-05-07T07:20:02.703Z,19.40
2018-05-07T07:20:40.056Z,19.40
2018-05-07T07:21:18.220Z,19.40
2018-05-07T07:21:56.373Z,19.40
2018-05-07T07:22:34.438Z,19.40
2018-05-07T07:23:12.594Z,19.50
2018-05-07T07:23:50.068Z,19.50
2018-05-07T07:24:27.486Z,19.50
2018-05-07T07:25:04.705Z,19.50
2018-05-07T07:25:41.857Z,19.50
2018-05-07T07:26:19.234Z,19.50
2018-05-07T07:26:57.362Z,19.40
2018-05-07T07:27:34.754Z,19.40
2018-05-07T07:28:11.944Z,19.50
2018-05-07T07:28:49.310Z,19.50
2018-05-07T07:29:26.754Z,19.50
2018-05-07T07:30:04.776Z,19.50
2018-05-07T07:30:42.861Z,19.60
2018-05-07T07:31:20.265Z,19.60
2018-05-07T07:31:57.585Z,19.60
2018-05-07T07:32:34.779Z,19.60
2018-05-07T07:33:12.796Z,19.60
2018-05-07T07:33:50.260Z,19.60
2018-05-07T07:34:27.446Z,19.60
2018-05-07T07:35:04.672Z,19.60
2018-05-07T07:35:42.082Z,19.60
2018-05-07T07:36:20.262Z,19.60
2018-05-07T07:36:58.466Z,19.70
2018-05-07T07:37:36.661Z,19.60
2018-05-07T07:38:14.015Z,19.70
2018-05-07T07:38:51.278Z,19.70
2018-05-07T07:39:29.431Z,19.70
2018-05-07T07:40:06.766Z,19.70
2018-05-07T07:40:44.879Z,19.70
2018-05-07T07:41:22.152Z,19.70
2018-05-07T07:41:59.482Z,19.70
2018-05-07T07:42:36.654Z,19.60
2018-05-07T07:43:14.899Z,19.60
2018-05-07T07:43:52.341Z,19.60
2018-05-07T07:44:29.649Z,19.60
2018-05-07T07:45:07.811Z,19.60
2018-05-07T07:45:45.931Z,19.60
2018-05-07T07:46:23.369Z,19.60
2018-05-07T07:47:00.847Z,19.60
2018-05-07T07:47:38.375Z,19.60
2018-05-07T07:48:15.787Z,19.70
2018-05-07T07:48:53.094Z,19.70
2018-05-07T07:49:30.490Z,19.70
2018-05-07T07:50:08.693Z,19.70
2018-05-07T07:50:46.127Z,19.70
2018-05-07T07:51:24.280Z,19.80
2018-05-07T07:52:02.463Z,19.80
2018-05-07T07:52:39.888Z,19.80
2018-05-07T07:53:17.382Z,19.80
2018-05-07T07:53:55.418Z,19.80
2018-05-07T07:54:32.685Z,19.80
2018-05-07T07:55:10.881Z,19.70
2018-05-07T07:55:48.197Z,19.70
2018-05-07T07:56:26.177Z,19.70
2018-05-07T07:57:03.483Z,19.70
2018-05-07T07:57:40.959Z,19.70
2018-05-07T07:58:19.090Z,19.80
2018-05-07T07:58:56.432Z,19.80
2018-05-07T07:59:34.651Z,19.90
2018-05-07T08:00:12.066Z,19.80
2018-05-07T08:00:50.042Z,19.90
2018-05-07T08:01:27.504Z,19.90
2018-05-07T08:02:05.611Z,19.90
2018-05-07T08:02:43.040Z,19.90
2018-05-07T08:03:21.276Z,19.90
2018-05-07T08:03:59.270Z,19.90